Time;durP1;ratioP1;P1;durP2;ratioP2;P2;SDS_P1;SDS_P2;PMS_P1;PMS_P2;Temp;Humidity;BMP_temperature;BMP_pressure;BME280_temperature;BME280_humidity;BME280_pressure;Samples;Min_cycle;Max_cycle;Signal;HPM_P1;HPM_P2
2023/09/30 00:00:52;;;;;;;29.45;8.15;;;;;;;12.99;100.00;102410.69;5035987;28;20037;-74
2023/09/30 00:03:18;;;;;;;28.13;8.25;;;;;;;13.02;100.00;102412.38;5027042;28;20038;-74
2023/09/30 00:05:43;;;;;;;32.38;10.27;;;;;;;13.07;100.00;102413.00;5027924;28;20053;-75
2023/09/30 00:08:09;;;;;;;23.60;9.32;;;;;;;12.98;100.00;102408.09;5033829;28;20034;-74
2023/09/30 00:10:34;;;;;;;27.55;9.23;;;;;;;13.02;100.00;102410.56;5025398;28;20033;-75
2023/09/30 00:13:00;;;;;;;22.58;7.88;;;;;;;13.04;100.00;102423.88;5032144;28;20776;-75
2023/09/30 00:15:25;;;;;;;19.00;8.95;;;;;;;13.08;100.00;102418.28;5030679;28;20029;-75
2023/09/30 00:17:51;;;;;;;23.65;9.73;;;;;;;13.02;100.00;102415.91;5035994;28;20084;-75
2023/09/30 00:20:17;;;;;;;25.58;9.98;;;;;;;13.07;100.00;102402.31;5030264;28;20570;-75
2023/09/30 00:22:42;;;;;;;24.52;9.82;;;;;;;13.09;100.00;102403.94;5026146;28;20029;-75
2023/09/30 00:25:08;;;;;;;21.65;9.38;;;;;;;12.99;100.00;102416.03;5023608;28;20037;-74
2023/09/30 00:27:33;;;;;;;20.83;8.98;;;;;;;12.96;100.00;102424.25;5024687;28;20045;-75
2023/09/30 00:29:59;;;;;;;17.85;6.85;;;;;;;12.99;100.00;102421.41;5027715;28;20033;-75
2023/09/30 00:32:24;;;;;;;19.58;8.07;;;;;;;12.96;100.00;102414.41;5033430;28;20926;-74
2023/09/30 00:34:52;;;;;;;20.60;9.30;;;;;;;13.03;100.00;102422.13;5029175;28;20041;-75
2023/09/30 00:37:17;;;;;;;24.75;9.50;;;;;;;13.02;100.00;102417.72;5034403;28;20042;-75
2023/09/30 00:39:44;;;;;;;23.90;9.23;;;;;;;13.04;100.00;102421.19;5022531;28;20060;-75
2023/09/30 00:42:10;;;;;;;21.55;9.60;;;;;;;13.02;100.00;102412.38;5014936;28;20034;-74
2023/09/30 00:44:36;;;;;;;30.85;10.93;;;;;;;12.98;100.00;102414.31;5010197;28;20837;-75
2023/09/30 00:47:02;;;;;;;26.23;9.45;;;;;;;12.91;100.00;102420.94;5030541;28;20045;-75
2023/09/30 00:49:29;;;;;;;19.75;8.38;;;;;;;12.82;100.00;102416.88;5015528;28;20033;-75
2023/09/30 00:51:56;;;;;;;19.05;9.23;;;;;;;12.80;100.00;102428.56;5025714;28;21534;-75
2023/09/30 00:54:25;;;;;;;20.80;9.05;;;;;;;12.79;100.00;102443.78;5035313;28;20049;-75
2023/09/30 00:56:52;;;;;;;21.85;8.95;;;;;;;12.78;100.00;102433.16;5023509;28;20104;-76
2023/09/30 00:59:19;;;;;;;17.17;9.45;;;;;;;12.82;100.00;102442.78;5030590;28;20167;-75
2023/09/30 01:01:46;;;;;;;24.25;9.82;;;;;;;12.82;100.00;102432.06;5028237;28;20065;-75
2023/09/30 01:04:12;;;;;;;20.38;9.50;;;;;;;12.79;100.00;102437.56;5035689;28;21119;-75
2023/09/30 01:06:38;;;;;;;17.17;8.77;;;;;;;12.74;100.00;102448.47;5031684;28;20053;-75
2023/09/30 01:09:04;;;;;;;23.42;9.85;;;;;;;12.70;100.00;102463.81;5027983;28;20041;-74
2023/09/30 01:11:29;;;;;;;21.40;9.13;;;;;;;12.68;100.00;102454.13;5032915;28;20807;-74
2023/09/30 01:13:55;;;;;;;29.55;11.38;;;;;;;12.67;100.00;102463.09;5035886;28;20970;-75
2023/09/30 01:16:21;;;;;;;27.95;10.88;;;;;;;12.63;100.00;102458.81;5000126;28;20046;-75
2023/09/30 01:18:47;;;;;;;23.70;9.38;;;;;;;12.48;100.00;102455.03;5028623;28;20030;-74
2023/09/30 01:21:12;;;;;;;30.88;11.27;;;;;;;12.46;100.00;102451.56;5026363;28;20038;-75
2023/09/30 01:23:40;;;;;;;32.72;10.73;;;;;;;12.49;100.00;102451.41;5032931;28;20911;-74
2023/09/30 01:26:09;;;;;;;28.48;11.93;;;;;;;12.44;100.00;102462.31;5031733;28;20038;-74
2023/09/30 01:28:35;;;;;;;31.58;11.57;;;;;;;12.41;100.00;102458.94;5028496;28;20137;-74
2023/09/30 01:31:00;;;;;;;26.77;11.77;;;;;;;12.40;100.00;102460.75;5030056;28;20036;-74
2023/09/30 01:33:28;;;;;;;28.77;11.07;;;;;;;12.41;100.00;102456.25;5033002;28;20148;-74
2023/09/30 01:35:54;;;;;;;25.33;12.82;;;;;;;12.37;100.00;102457.31;5017445;28;20093;-74
2023/09/30 01:38:20;;;;;;;39.35;15.05;;;;;;;12.39;100.00;102455.44;5029820;28;20144;-74
2023/09/30 01:40:46;;;;;;;27.50;13.82;;;;;;;12.43;100.00;102457.91;5031145;28;20033;-74
2023/09/30 01:43:15;;;;;;;27.73;13.63;;;;;;;12.42;100.00;102472.22;5028910;28;20030;-76
2023/09/30 01:45:42;;;;;;;28.17;12.57;;;;;;;12.37;100.00;102471.56;5031225;28;20128;-74
2023/09/30 01:48:10;;;;;;;32.55;15.93;;;;;;;12.34;100.00;102473.50;5024063;28;20150;-75
2023/09/30 01:50:39;;;;;;;33.13;15.40;;;;;;;12.31;100.00;102479.88;5032667;28;20052;-74
2023/09/30 01:53:09;;;;;;;32.72;15.63;;;;;;;12.28;100.00;102481.81;5025694;28;20030;-75
2023/09/30 01:55:35;;;;;;;27.60;13.32;;;;;;;12.28;100.00;102481.81;5021455;28;20029;-75
2023/09/30 01:58:01;;;;;;;26.05;12.77;;;;;;;12.21;100.00;102470.53;5033763;28;20029;-74
2023/09/30 02:00:28;;;;;;;30.30;14.18;;;;;;;12.22;100.00;102466.03;5032529;28;20671;-75
2023/09/30 02:02:55;;;;;;;27.58;12.48;;;;;;;12.26;100.00;102462.28;5023183;28;20029;-74
2023/09/30 02:05:22;;;;;;;30.08;12.18;;;;;;;12.25;100.00;102464.09;5029620;28;20073;-75
2023/09/30 02:07:48;;;;;;;20.38;9.90;;;;;;;12.18;100.00;102466.16;5035424;28;20046;-75
2023/09/30 02:10:14;;;;;;;19.25;9.98;;;;;;;12.16;100.00;102461.84;5032054;28;20037;-75
2023/09/30 02:12:39;;;;;;;22.85;12.25;;;;;;;12.21;100.00;102462.50;5035970;28;20070;-74
2023/09/30 02:15:07;;;;;;;27.80;13.45;;;;;;;12.26;100.00;102464.97;5037379;28;20034;-74
2023/09/30 02:17:32;;;;;;;25.38;11.35;;;;;;;12.14;100.00;102461.00;5036382;28;20511;-74
2023/09/30 02:19:58;;;;;;;23.95;12.13;;;;;;;12.14;100.00;102445.84;5021195;28;20046;-75
2023/09/30 02:22:24;;;;;;;30.40;13.25;;;;;;;12.12;100.00;102445.03;5024990;28;20049;-75
2023/09/30 02:24:50;;;;;;;23.15;12.73;;;;;;;12.10;100.00;102449.59;5035242;28;20041;-75
2023/09/30 02:27:16;;;;;;;23.67;11.57;;;;;;;12.09;100.00;102460.34;5031775;28;20499;-74
2023/09/30 02:29:41;;;;;;;26.08;11.65;;;;;;;12.16;100.00;102457.34;5031932;28;20396;-75
2023/09/30 02:32:07;;;;;;;26.27;12.73;;;;;;;12.11;100.00;102463.84;5025328;28;20111;-75
2023/09/30 02:34:33;;;;;;;27.20;14.93;;;;;;;12.11;100.00;102475.41;5034201;28;20037;-75
2023/09/30 02:36:59;;;;;;;26.20;14.15;;;;;;;12.10;100.00;102476.34;5020606;28;21431;-74
2023/09/30 02:39:26;;;;;;;29.42;13.68;;;;;;;12.08;100.00;102469.31;5034132;28;20993;-75
2023/09/30 02:41:52;;;;;;;22.13;14.23;;;;;;;12.01;100.00;102466.03;5033944;28;21151;-75
2023/09/30 02:44:18;;;;;;;23.65;13.38;;;;;;;12.06;100.00;102456.00;5031299;28;20117;-75
2023/09/30 02:46:43;;;;;;;24.10;12.25;;;;;;;12.03;100.00;102463.28;5034453;28;20533;-75
2023/09/30 02:49:09;;;;;;;22.20;11.60;;;;;;;12.01;100.00;102454.47;5029568;28;20090;-74
2023/09/30 02:51:34;;;;;;;29.55;14.55;;;;;;;11.87;100.00;102455.06;5027482;28;20025;-75
2023/09/30 02:54:00;;;;;;;33.97;14.50;;;;;;;11.87;100.00;102453.25;5032174;28;20921;-75
2023/09/30 02:56:28;;;;;;;32.13;16.52;;;;;;;11.89;100.00;102456.72;5035224;28;20045;-74
2023/09/30 02:58:53;;;;;;;28.85;15.30;;;;;;;12.00;100.00;102458.97;5047064;28;20111;-75
2023/09/30 03:01:20;;;;;;;23.63;13.07;;;;;;;12.00;100.00;102461.63;5027677;28;20097;-74
2023/09/30 03:03:46;;;;;;;23.80;15.10;;;;;;;12.04;100.00;102448.97;5034547;28;20038;-75
2023/09/30 03:06:12;;;;;;;31.65;15.63;;;;;;;12.00;100.00;102450.94;5032323;28;20408;-74
2023/09/30 03:08:37;;;;;;;38.53;17.10;;;;;;;12.06;100.00;102456.00;5028612;28;20475;-75
2023/09/30 03:11:04;;;;;;;26.23;13.10;;;;;;;12.02;100.00;102457.06;5027081;28;20037;-75
2023/09/30 03:13:30;;;;;;;21.67;13.93;;;;;;;11.97;100.00;102461.75;5030509;28;20048;-75
2023/09/30 03:15:56;;;;;;;30.83;14.05;;;;;;;12.01;100.00;102460.69;5032165;28;20037;-74
2023/09/30 03:18:26;;;;;;;27.42;16.42;;;;;;;12.05;100.00;102454.28;5024826;28;20138;-74
2023/09/30 03:20:56;;;;;;;27.23;15.10;;;;;;;12.07;100.00;102451.53;5030083;28;20125;-75
2023/09/30 03:23:28;;;;;;;28.00;15.68;;;;;;;12.13;100.00;102460.16;5030122;28;20089;-75
2023/09/30 03:25:59;;;;;;;27.92;15.88;;;;;;;12.19;100.00;102456.31;5030587;28;20033;-75
2023/09/30 03:28:24;;;;;;;26.38;14.48;;;;;;;12.05;100.00;102458.72;5026095;28;20034;-74
2023/09/30 03:30:50;;;;;;;24.85;13.77;;;;;;;12.07;100.00;102457.75;5029912;28;20906;-74
2023/09/30 03:33:17;;;;;;;23.98;12.98;;;;;;;12.11;100.00;102464.72;5027400;28;20069;-74
2023/09/30 03:35:42;;;;;;;24.70;13.48;;;;;;;12.16;100.00;102460.03;5025353;28;20140;-75
2023/09/30 03:38:09;;;;;;;28.80;15.98;;;;;;;12.24;100.00;102464.16;5030945;28;20032;-75
2023/09/30 03:40:38;;;;;;;35.63;18.02;;;;;;;12.26;100.00;102459.63;5026199;28;20045;-75
2023/09/30 03:43:05;;;;;;;26.75;15.50;;;;;;;12.21;100.00;102442.91;5030302;28;20903;-74
2023/09/30 03:45:32;;;;;;;27.58;15.30;;;;;;;12.20;100.00;102455.41;5027997;28;20041;-74
2023/09/30 03:47:58;;;;;;;26.20;14.13;;;;;;;12.20;100.00;102455.41;5034201;28;20056;-74
2023/09/30 03:50:24;;;;;;;33.42;17.33;;;;;;;12.19;100.00;102459.88;5013119;28;20040;-75
2023/09/30 03:52:50;;;;;;;28.35;15.95;;;;;;;12.23;100.00;102449.03;5030795;28;20040;-75
2023/09/30 03:55:20;;;;;;;27.73;16.15;;;;;;;12.28;100.00;102452.38;5035154;28;20037;-74
2023/09/30 03:57:47;;;;;;;38.58;17.40;;;;;;;12.29;100.00;102452.31;5028727;28;20143;-75
2023/09/30 04:00:16;;;;;;;34.33;17.30;;;;;;;12.29;100.00;102440.75;5026040;28;20898;-74
2023/09/30 04:02:42;;;;;;;35.85;17.40;;;;;;;12.32;100.00;102443.28;5024382;28;20033;-74
2023/09/30 04:05:11;;;;;;;29.88;16.13;;;;;;;12.33;100.00;102445.88;5031754;28;20085;-76
2023/09/30 04:07:37;;;;;;;28.15;16.90;;;;;;;12.38;100.00;102456.38;5028392;28;20502;-75
2023/09/30 04:10:04;;;;;;;24.58;15.57;;;;;;;12.42;100.00;102455.31;5026284;28;20038;-75
2023/09/30 04:12:30;;;;;;;40.60;19.95;;;;;;;12.47;100.00;102455.97;5029817;28;20909;-75
2023/09/30 04:14:55;;;;;;;32.40;15.90;;;;;;;12.45;100.00;102444.50;5032034;28;20037;-74
2023/09/30 04:17:22;;;;;;;31.88;18.02;;;;;;;12.43;100.00;102441.84;5026303;28;20116;-74
2023/09/30 04:19:51;;;;;;;31.35;18.33;;;;;;;12.38;100.00;102456.38;5032225;28;21008;-75
2023/09/30 04:22:16;;;;;;;35.17;18.08;;;;;;;12.41;100.00;102459.81;5041448;28;20069;-75
2023/09/30 04:24:42;;;;;;;37.97;18.95;;;;;;;12.51;100.00;102476.31;5037610;28;20037;-75
2023/09/30 04:27:07;;;;;;;35.92;19.25;;;;;;;12.53;100.00;102473.56;5071290;28;20052;-74
2023/09/30 04:29:34;;;;;;;30.00;17.25;;;;;;;12.44;100.00;102478.38;5033402;28;20048;-75
2023/09/30 04:31:59;;;;;;;36.67;17.83;;;;;;;12.38;100.00;102473.31;5036364;28;20111;-74
2023/09/30 04:34:27;;;;;;;33.63;18.92;;;;;;;12.42;100.00;102469.56;5025147;28;20037;-75
2023/09/30 04:36:53;;;;;;;35.38;18.17;;;;;;;12.49;100.00;102471.94;5027968;28;20053;-76
2023/09/30 04:39:18;;;;;;;36.33;18.30;;;;;;;12.47;100.00;102466.69;5035995;28;20041;-74
2023/09/30 04:41:44;;;;;;;34.55;19.02;;;;;;;12.46;100.00;102464.09;5025021;28;20080;-75
2023/09/30 04:44:09;;;;;;;35.70;19.85;;;;;;;12.49;100.00;102466.59;5033505;28;20040;-74
2023/09/30 04:46:40;;;;;;;37.28;19.75;;;;;;;12.51;100.00;102470.09;5032357;28;20033;-74
2023/09/30 04:49:07;;;;;;;41.40;23.10;;;;;;;12.49;100.00;102463.91;5026236;28;20049;-75
2023/09/30 04:51:33;;;;;;;45.10;24.02;;;;;;;12.49;100.00;102474.63;5020143;28;20144;-75
2023/09/30 04:53:59;;;;;;;35.90;21.20;;;;;;;12.44;100.00;102480.19;5030809;28;20038;-74
2023/09/30 04:56:25;;;;;;;34.58;19.95;;;;;;;12.45;100.00;102479.25;5028918;28;20208;-74
2023/09/30 04:58:50;;;;;;;38.25;19.88;;;;;;;12.42;100.00;102480.25;5027240;28;20771;-75
2023/09/30 05:01:18;;;;;;;40.65;21.20;;;;;;;12.34;100.00;102479.72;5031393;28;20148;-75
2023/09/30 05:03:48;;;;;;;37.83;21.65;;;;;;;12.31;100.00;102482.56;5027995;28;20041;-74
2023/09/30 05:06:13;;;;;;;34.63;20.15;;;;;;;12.32;100.00;102486.09;5045082;28;20076;-75
2023/09/30 05:08:40;;;;;;;39.70;21.73;;;;;;;12.36;100.00;102491.25;5029484;28;20155;-75
2023/09/30 05:11:05;;;;;;;37.08;20.52;;;;;;;12.39;100.00;102487.53;5037103;28;20038;-74
2023/09/30 05:13:33;;;;;;;37.28;19.45;;;;;;;12.41;100.00;102491.91;5032530;28;20040;-75
2023/09/30 05:15:59;;;;;;;38.70;20.35;;;;;;;12.35;100.00;102491.28;5028303;28;20034;-74
2023/09/30 05:18:24;;;;;;;44.58;19.75;;;;;;;12.39;100.00;102498.25;5030027;28;20852;-75
2023/09/30 05:20:50;;;;;;;38.60;22.63;;;;;;;12.43;100.00;102497.19;5026845;28;20034;-74
2023/09/30 05:23:15;;;;;;;39.95;21.58;;;;;;;12.42;100.00;102492.78;5028786;28;20041;-75
2023/09/30 05:25:42;;;;;;;35.15;20.50;;;;;;;12.43;100.00;102494.50;5029483;28;20033;-75
2023/09/30 05:28:09;;;;;;;39.92;22.30;;;;;;;12.43;100.00;102499.84;5024181;28;20041;-75
2023/09/30 05:30:35;;;;;;;35.25;20.17;;;;;;;12.44;100.00;102496.22;5029483;28;20033;-74
2023/09/30 05:33:01;;;;;;;45.80;27.02;;;;;;;12.35;100.00;102502.88;5062678;28;20030;-74
2023/09/30 05:35:27;;;;;;;50.83;26.25;;;;;;;12.38;100.00;102504.53;5030453;28;20626;-75
2023/09/30 05:37:53;;;;;;;52.35;25.40;;;;;;;12.42;100.00;102506.16;5027099;28;20112;-75
2023/09/30 05:40:21;;;;;;;51.17;27.27;;;;;;;12.42;100.00;102500.78;5028067;28;20045;-75
2023/09/30 05:42:48;;;;;;;48.47;26.92;;;;;;;12.49;100.00;102507.59;5030382;28;20651;-74
2023/09/30 05:45:14;;;;;;;42.88;23.83;;;;;;;12.47;100.00;102506.81;5032557;28;20029;-75
2023/09/30 05:47:40;;;;;;;52.25;26.92;;;;;;;12.53;100.00;102505.66;5032400;28;20045;-74
2023/09/30 05:50:07;;;;;;;51.35;27.25;;;;;;;12.54;100.00;102502.03;5021416;28;20037;-75
2023/09/30 05:52:33;;;;;;;45.63;23.90;;;;;;;12.57;100.00;102507.28;5046791;28;20041;-74
2023/09/30 05:55:02;;;;;;;47.20;26.85;;;;;;;12.61;100.00;102504.38;5029438;28;20036;-75
2023/09/30 05:57:28;;;;;;;46.13;26.02;;;;;;;12.65;100.00;102508.66;5030829;28;20033;-73
2023/09/30 05:59:54;;;;;;;53.80;29.38;;;;;;;12.44;100.00;102514.97;5024560;28;20037;-76
2023/09/30 06:02:19;;;;;;;43.50;25.40;;;;;;;12.58;100.00;102527.72;5039365;28;20746;-74
2023/09/30 06:04:46;;;;;;;54.50;28.98;;;;;;;12.65;100.00;102527.41;5010536;28;20156;-75
2023/09/30 06:07:12;;;;;;;49.53;28.10;;;;;;;12.74;100.00;102514.53;5028918;28;20045;-74
2023/09/30 06:09:37;;;;;;;45.05;27.65;;;;;;;12.62;100.00;102519.50;5034697;28;20040;-74
2023/09/30 06:12:06;;;;;;;48.05;27.30;;;;;;;12.72;100.00;102529.81;5034703;28;20034;-75
2023/09/30 06:14:32;;;;;;;40.25;24.27;;;;;;;12.76;100.00;102518.03;5025905;28;20040;-74
2023/09/30 06:16:58;;;;;;;45.38;26.83;;;;;;;12.81;100.00;102521.34;5035905;28;20168;-74
2023/09/30 06:19:25;;;;;;;45.78;25.08;;;;;;;12.88;100.00;102520.97;5031685;28;20935;-75
2023/09/30 06:21:51;;;;;;;43.40;25.77;;;;;;;12.92;100.00;102521.72;5027809;28;20036;-74
2023/09/30 06:24:19;;;;;;;42.67;26.38;;;;;;;12.95;100.00;102526.91;5033271;28;20042;-74
2023/09/30 06:26:45;;;;;;;51.80;29.30;;;;;;;13.04;100.00;102520.28;5032365;28;20037;-74
2023/09/30 06:29:11;;;;;;;50.15;28.10;;;;;;;13.13;100.00;102522.53;5029998;28;20037;-75
2023/09/30 06:31:37;;;;;;;49.72;28.10;;;;;;;13.16;100.00;102522.38;5021014;28;20081;-75
2023/09/30 06:34:04;;;;;;;47.50;28.60;;;;;;;13.25;100.00;102524.63;5033009;28;20036;-74
2023/09/30 06:36:29;;;;;;;49.45;29.67;;;;;;;13.35;100.00;102515.22;5029556;28;20121;-75
2023/09/30 06:38:55;;;;;;;48.88;29.02;;;;;;;13.51;100.00;102512.69;5035309;28;20037;-73
2023/09/30 06:41:20;;;;;;;55.45;28.15;;;;;;;13.58;100.00;102516.78;5028111;28;20045;-75
2023/09/30 06:43:46;;;;;;;53.70;28.95;;;;;;;13.73;100.00;102515.16;5033623;28;20042;-75
2023/09/30 06:46:12;;;;;;;55.53;30.92;;;;;;;13.84;100.00;102520.84;5033525;28;20034;-75
2023/09/30 06:48:42;;;;;;;48.70;29.85;;;;;;;14.02;100.00;102527.13;5028378;28;20045;-75
2023/09/30 06:51:07;;;;;;;48.92;27.92;;;;;;;14.16;100.00;102531.78;5023734;28;20104;-74
2023/09/30 06:53:33;;;;;;;49.08;29.90;;;;;;;14.27;100.00;102531.22;5032819;28;20565;-76
2023/09/30 06:55:58;;;;;;;58.67;31.15;;;;;;;14.34;100.00;102538.88;5034696;28;20046;-74
2023/09/30 06:58:24;;;;;;;50.40;29.30;;;;;;;14.53;100.00;102543.31;5041502;28;20033;-75
2023/09/30 07:00:51;;;;;;;44.88;28.98;;;;;;;14.69;100.00;102542.41;5029069;28;20120;-74
2023/09/30 07:03:19;;;;;;;40.75;28.40;;;;;;;14.81;100.00;102526.59;5014835;28;20185;-74
2023/09/30 07:05:44;;;;;;;50.33;30.00;;;;;;;14.93;100.00;102521.41;5032049;28;20164;-74
2023/09/30 07:08:10;;;;;;;50.38;29.83;;;;;;;15.00;100.00;102538.94;5026148;28;20052;-74
2023/09/30 07:10:36;;;;;;;41.75;25.80;;;;;;;15.25;100.00;102534.88;5029524;28;20068;-76
2023/09/30 07:13:03;;;;;;;44.67;27.90;;;;;;;15.15;100.00;102539.03;5026421;28;20084;-75
2023/09/30 07:15:29;;;;;;;50.47;29.17;;;;;;;15.47;100.00;102537.25;5032397;28;20052;-74
2023/09/30 07:17:54;;;;;;;45.97;27.50;;;;;;;15.62;100.00;102541.75;5032049;28;20033;-74
2023/09/30 07:20:20;;;;;;;44.55;28.70;;;;;;;15.64;100.00;102547.06;5031963;28;20831;-74
2023/09/30 07:22:46;;;;;;;61.50;27.77;;;;;;;15.70;100.00;102555.63;5025907;28;20190;-74
2023/09/30 07:25:14;;;;;;;56.50;27.52;;;;;;;15.90;100.00;102559.00;5031962;28;20034;-75
2023/09/30 07:27:40;;;;;;;45.28;26.55;;;;;;;16.17;100.00;102549.31;5034795;28;20052;-74
2023/09/30 07:30:06;;;;;;;42.42;24.15;;;;;;;16.39;100.00;102561.47;5022032;28;20068;-74
2023/09/30 07:32:32;;;;;;;39.10;24.63;;;;;;;16.59;100.00;102558.44;5026550;28;20040;-75
2023/09/30 07:34:57;;;;;;;41.90;24.25;;;;;;;16.55;100.00;102557.75;5031627;28;20038;-74
2023/09/30 07:37:23;;;;;;;43.47;23.73;;;;;;;16.51;100.00;102558.88;5037228;28;20042;-75
2023/09/30 07:39:49;;;;;;;42.78;21.90;;;;;;;16.77;100.00;102567.25;5027737;28;20041;-75
2023/09/30 07:42:14;;;;;;;40.58;22.20;;;;;;;17.16;100.00;102554.91;5030813;28;20048;-74
2023/09/30 07:44:40;;;;;;;45.75;22.35;;;;;;;17.37;100.00;102558.94;5026670;28;20046;-74
2023/09/30 07:47:06;;;;;;;42.90;21.67;;;;;;;17.52;100.00;102562.47;5023347;28;20050;-74
2023/09/30 07:49:34;;;;;;;38.38;21.40;;;;;;;17.03;100.00;102571.88;5031328;28;20033;-74
2023/09/30 07:52:00;;;;;;;35.03;20.58;;;;;;;16.73;100.00;102571.97;5022444;28;20052;-74
2023/09/30 07:54:26;;;;;;;36.85;20.33;;;;;;;16.58;100.00;102572.88;5028461;28;20045;-76
2023/09/30 07:56:52;;;;;;;38.67;21.40;;;;;;;16.38;100.00;102573.22;5026042;28;20133;-74
2023/09/30 07:59:17;;;;;;;40.40;20.77;;;;;;;16.41;100.00;102573.88;5025872;28;20036;-74
2023/09/30 08:01:43;;;;;;;35.28;19.25;;;;;;;16.39;100.00;102583.88;5030566;28;20065;-75
2023/09/30 08:04:08;;;;;;;38.50;18.13;;;;;;;16.33;100.00;102572.63;5028380;28;20048;-74
2023/09/30 08:06:34;;;;;;;36.53;17.75;;;;;;;16.35;100.00;102578.78;5034888;28;20049;-73
2023/09/30 08:08:59;;;;;;;41.72;18.70;;;;;;;16.39;100.00;102588.41;5020048;28;20049;-74
2023/09/30 08:11:27;;;;;;;37.70;18.33;;;;;;;16.45;100.00;102591.59;5028096;28;20045;-73
2023/09/30 08:13:54;;;;;;;42.65;17.88;;;;;;;16.55;100.00;102595.47;5031986;28;20040;-74
2023/09/30 08:16:20;;;;;;;37.90;17.50;;;;;;;16.54;100.00;102595.56;5024998;28;20048;-74
2023/09/30 08:18:45;;;;;;;27.75;16.50;;;;;;;16.52;100.00;102601.06;5034529;28;20084;-75
2023/09/30 08:21:11;;;;;;;38.53;17.65;;;;;;;16.51;100.00;102599.28;5029025;28;20036;-74
2023/09/30 08:23:38;;;;;;;31.08;16.08;;;;;;;16.70;100.00;102584.72;5029544;28;20037;-74
2023/09/30 08:26:07;;;;;;;34.55;17.08;;;;;;;16.65;100.00;102576.91;5027313;28;20944;-74
2023/09/30 08:28:32;;;;;;;36.53;18.35;;;;;;;16.75;100.00;102574.56;5033741;28;20851;-74
2023/09/30 08:31:05;;;;;;;36.30;16.33;;;;;;;16.79;100.00;102581.50;5030216;28;20033;-74
2023/09/30 08:33:31;;;;;;;29.88;15.80;;;;;;;16.90;100.00;102575.44;5029319;28;20029;-74
2023/09/30 08:36:07;;;;;;;42.05;17.50;;;;;;;16.77;100.00;102580.72;5024532;28;20034;-75
2023/09/30 08:38:36;;;;;;;36.22;16.40;;;;;;;16.87;100.00;102572.91;5032317;28;20129;-75
2023/09/30 08:41:02;;;;;;;32.15;15.57;;;;;;;16.73;100.00;102571.09;5030526;28;20072;-76
2023/09/30 08:43:30;;;;;;;32.10;16.40;;;;;;;16.88;100.00;102563.91;5028036;28;20025;-74
2023/09/30 08:45:56;;;;;;;45.95;18.50;;;;;;;17.04;100.00;102562.81;5031172;28;20886;-75
2023/09/30 08:48:23;;;;;;;32.10;16.55;;;;;;;17.21;100.00;102552.78;5024333;28;20042;-73
2023/09/30 08:50:49;;;;;;;36.00;16.58;;;;;;;17.25;100.00;102551.63;5029093;28;20044;-74
2023/09/30 08:53:16;;;;;;;33.35;15.63;;;;;;;17.28;100.00;102556.84;5030140;28;20038;-74
2023/09/30 08:55:43;;;;;;;36.55;16.52;;;;;;;17.30;100.00;102557.59;5023699;28;20029;-76
2023/09/30 08:58:11;;;;;;;38.30;15.35;;;;;;;17.31;100.00;102562.88;5033207;28;20040;-74
2023/09/30 09:00:38;;;;;;;30.80;15.68;;;;;;;17.31;100.00;102562.88;5030979;28;20037;-75
2023/09/30 09:03:05;;;;;;;26.65;13.88;;;;;;;17.48;100.00;102567.22;5028757;28;20100;-74
2023/09/30 09:05:31;;;;;;;27.67;15.52;;;;;;;17.48;100.00;102575.31;5024825;28;21055;-74
2023/09/30 09:07:56;;;;;;;32.08;15.32;;;;;;;17.54;100.00;102574.91;5031526;28;20038;-74
2023/09/30 09:10:22;;;;;;;30.25;15.43;;;;;;;17.58;100.00;102581.81;5027594;28;20041;-74
2023/09/30 09:12:56;;;;;;;31.77;15.80;;;;;;;17.74;100.00;102564.66;5020737;28;20120;-74
2023/09/30 09:15:26;;;;;;;34.10;15.90;;;;;;;17.84;100.00;102561.25;5028277;28;20096;-74
2023/09/30 09:17:52;;;;;;;30.42;14.95;;;;;;;17.87;100.00;102554.75;5028747;28;20080;-75
2023/09/30 09:20:20;;;;;;;36.35;15.52;;;;;;;18.00;100.00;102560.22;5029328;28;20042;-74
2023/09/30 09:22:53;;;;;;;32.65;15.65;;;;;;;18.02;100.00;102561.88;5028182;28;20201;-75
2023/09/30 09:25:19;;;;;;;29.38;14.10;;;;;;;18.23;100.00;102564.06;5027831;28;20038;-74
2023/09/30 09:27:45;;;;;;;31.35;15.75;;;;;;;18.13;100.00;102561.13;5025634;28;20037;-75
2023/09/30 09:30:27;;;;;;;30.50;14.63;;;;;;;18.04;100.00;102562.63;5022844;28;20041;-74
2023/09/30 09:32:58;;;;;;;30.95;14.43;;;;;;;18.16;100.00;102571.72;5026159;28;20038;-75
2023/09/30 09:35:28;;;;;;;32.30;14.15;;;;;;;18.23;100.00;102569.47;5025231;28;20116;-74
2023/09/30 09:37:59;;;;;;;29.23;14.23;;;;;;;18.35;100.00;102566.78;5021457;28;20087;-74
2023/09/30 09:40:30;;;;;;;31.55;14.07;;;;;;;18.43;100.00;102578.91;5030742;28;20026;-73
2023/09/30 09:42:57;;;;;;;34.67;15.67;;;;;;;18.41;100.00;102589.81;5034421;28;20029;-74
2023/09/30 09:45:24;;;;;;;30.27;13.82;;;;;;;18.50;100.00;102594.59;5028499;28;20088;-76
2023/09/30 09:47:52;;;;;;;27.90;13.80;;;;;;;18.54;100.00;102597.94;5037793;28;20037;-76
2023/09/30 09:50:19;;;;;;;34.25;14.05;;;;;;;18.50;100.00;102601.81;5023260;28;20038;-74
2023/09/30 09:52:48;;;;;;;28.70;13.93;;;;;;;18.70;100.00;102606.75;5029485;28;20042;-74
2023/09/30 09:55:19;;;;;;;25.40;13.45;;;;;;;18.69;100.00;102599.63;5030757;28;21189;-75
2023/09/30 09:57:46;;;;;;;36.00;13.85;;;;;;;18.80;100.00;102597.03;5029949;28;20045;-73
2023/09/30 10:00:18;;;;;;;26.70;11.35;;;;;;;18.89;100.00;102593.69;5027275;28;20029;-75
2023/09/30 10:02:45;;;;;;;25.30;12.05;;;;;;;18.90;100.00;102602.66;5030445;28;20143;-74
2023/09/30 10:05:12;;;;;;;36.42;13.32;;;;;;;18.85;100.00;102605.69;5015737;28;20055;-74
2023/09/30 10:07:43;;;;;;;30.40;11.73;;;;;;;18.82;100.00;102600.47;5031997;28;20052;-73
2023/09/30 10:10:15;;;;;;;27.38;10.68;;;;;;;18.72;100.00;102607.50;5034871;28;20048;-74
2023/09/30 10:12:41;;;;;;;31.42;11.65;;;;;;;18.63;100.00;102602.72;5029063;28;20572;-74
2023/09/30 10:15:24;;;;;;;20.38;9.85;;;;;;;18.95;100.00;102605.03;5031743;28;20038;-75
2023/09/30 10:18:07;;;;;;;26.48;10.68;;;;;;;19.27;100.00;102605.44;5020370;28;20030;-76
2023/09/30 10:20:34;;;;;;;28.90;10.60;;;;;;;19.55;100.00;102602.44;5031013;28;20115;-75
2023/09/30 10:23:18;;;;;;;26.98;11.65;;;;;;;19.69;100.00;102606.88;5029211;28;21025;-74
2023/09/30 10:25:47;;;;;;;28.20;10.88;;;;;;;19.89;100.00;102617.09;5030034;28;20048;-73
2023/09/30 10:28:35;;;;;;;25.88;10.48;;;;;;;19.97;100.00;102600.25;5029370;28;20061;-75
2023/09/30 10:31:18;;;;;;;25.73;10.77;;;;;;;19.90;100.00;102594.44;5032415;28;20060;-74
2023/09/30 10:33:59;;;;;;;24.38;10.30;;;;;;;19.93;100.00;102587.97;5023058;28;20045;-74
2023/09/30 10:36:33;;;;;;;24.95;9.30;;;;;;;19.96;100.00;102578.72;5029146;28;20477;-75
2023/09/30 10:39:00;;;;;;;18.45;7.93;;;;;;;20.20;100.00;102567.88;5017565;28;20037;-74
2023/09/30 10:41:52;;;;;;;22.75;8.93;;;;;;;20.60;100.00;102565.69;5035727;28;20044;-75
2023/09/30 10:44:26;;;;;;;26.63;9.00;;;;;;;20.54;96.02;102571.59;5030725;28;20080;-74
2023/09/30 10:46:52;;;;;;;25.30;9.20;;;;;;;20.20;97.52;102559.75;5032726;28;20033;-75
2023/09/30 10:49:31;;;;;;;22.77;9.48;;;;;;;20.44;95.78;102571.41;5029063;28;20034;-74
2023/09/30 10:52:02;;;;;;;21.90;7.50;;;;;;;20.53;92.63;102565.28;5036292;28;20029;-74
2023/09/30 10:54:29;;;;;;;19.30;6.72;;;;;;;20.44;94.20;102556.00;5030200;28;20534;-75
2023/09/30 10:56:55;;;;;;;16.48;7.75;;;;;;;20.56;92.65;102553.34;5032585;28;20069;-75
2023/09/30 10:59:26;;;;;;;18.30;6.60;;;;;;;20.54;93.55;102552.63;5033028;28;20093;-75
2023/09/30 11:01:52;;;;;;;17.70;6.22;;;;;;;20.20;89.17;102552.47;5030856;28;20063;-74